»·PEaware :: N6262K KASE-KVEL

N6262K :: KASE-KVEL

FLIGHT INFORMATION

Flight Status: Arrived
Operator: Privately registered:
United States
More flights under this callsign
Pilot: Judson K. (15650)
Aircraft: MITSUBISHI MU-2 MARQUISE
(MU2)
More flights by this aircraft type
Origin: KASE Aspen-Pitkin Co/Sardy
United States
Destination: KVEL Vernal
United States
More flights between these airports :: More routes between these airports
Route: +LINDZ8 EKR V200 BONGO V391 VEL
File this flight plan on PilotEdge
Remarks:
Altitude:
(Current/Filed)
22,000ft
Speed:
(Current/Filed)
210kts
Departed: 19-Dec-17 06:09 PM
Arrived: 19-Dec-17 07:13 PM
Distance/Time
Traveled:
142nm/1:04
Distance/Time
To Go:
Arrived

Flight Plot

Page will automatically refresh every two minutes.

Flight plan parsing failed; only flown route is shown


Map Options




Map Legend


Flown Route
Filed Route
Departure Airport
Arrival Airport
Navaid (VOR, NDB)
Fix

Horizontal Profiles

Position Reports

Time Latitude Longitude Heading Altitude Ground
Speed
19-Dec-17 17:37 39.224150 -106.867219 251 7732ft 0kts
19-Dec-17 17:38 39.224150 -106.867219 251 7732ft 0kts
19-Dec-17 17:39 39.224150 -106.867219 251 7732ft 0kts
19-Dec-17 17:40 39.224150 -106.867219 251 7732ft 0kts
19-Dec-17 17:41 39.224150 -106.867219 251 7732ft 0kts
19-Dec-17 17:42 39.224150 -106.867219 251 7732ft 0kts
19-Dec-17 17:43 39.224150 -106.867219 251 7732ft 0kts
19-Dec-17 17:44 39.224150 -106.867219 251 7732ft 0kts
19-Dec-17 17:45 39.224150 -106.867219 251 7732ft 0kts
19-Dec-17 17:46 39.224150 -106.867219 251 7732ft 0kts
19-Dec-17 17:47 39.224150 -106.867219 251 7732ft 0kts
19-Dec-17 17:48 39.224150 -106.867219 251 7732ft 0kts
19-Dec-17 17:49 39.224150 -106.867219 251 7732ft 0kts
19-Dec-17 17:50 39.224150 -106.867219 251 7732ft 0kts
19-Dec-17 17:51 39.224150 -106.867219 251 7732ft 0kts
19-Dec-17 17:52 39.224150 -106.867219 251 7732ft 0kts
19-Dec-17 17:53 39.224150 -106.867219 251 7732ft 0kts
19-Dec-17 17:54 39.224150 -106.867223 251 7732ft 0kts
19-Dec-17 17:55 39.224150 -106.867223 251 7732ft 0kts
19-Dec-17 17:56 39.224150 -106.867223 254 7732ft 0kts
19-Dec-17 17:57 39.224150 -106.867223 252 7732ft 0kts
19-Dec-17 17:58 39.224150 -106.867223 252 7732ft 0kts
19-Dec-17 17:59 39.224150 -106.867223 252 7732ft 0kts
19-Dec-17 18:00 39.224150 -106.867223 252 7732ft 0kts
19-Dec-17 18:01 39.224150 -106.867223 252 7732ft 0kts
19-Dec-17 18:02 39.224150 -106.867223 252 7732ft 0kts
19-Dec-17 18:03 39.224150 -106.867223 252 7732ft 0kts
19-Dec-17 18:04 39.224150 -106.867223 252 7732ft 0kts
19-Dec-17 18:05 39.224150 -106.867223 252 7732ft 0kts
19-Dec-17 18:06 39.224047 -106.867639 249 7732ft 9kts
19-Dec-17 18:07 39.223990 -106.867814 246 7732ft 3kts
19-Dec-17 18:08 39.217672 -106.865080 159 7784ft 29kts
19-Dec-17 18:09 39.215076 -106.863951 182 7802ft 0kts
19-Dec-17 18:10 39.215076 -106.863951 182 7802ft 0kts
19-Dec-17 18:11 39.215076 -106.863951 182 7802ft 0kts
19-Dec-17 18:12 39.215076 -106.863951 182 7802ft 0kts
19-Dec-17 18:13 39.214707 -106.864817 341 7804ft 0kts
19-Dec-17 18:14 39.214707 -106.864817 341 7804ft 0kts
19-Dec-17 18:15 39.221778 -106.868118 339 7747ft 70kts
19-Dec-17 18:16 39.233337 -106.873911 154 7673ft 30kts
19-Dec-17 18:17 39.230539 -106.872435 160 7686ft 21kts
19-Dec-17 18:18 39.226288 -106.869229 159 7712ft 30kts
19-Dec-17 18:19 39.225676 -106.868310 226 7718ft 0kts
19-Dec-17 18:20 39.225676 -106.868310 226 7718ft 0kts
19-Dec-17 18:21 39.225676 -106.868310 226 7718ft 0kts
19-Dec-17 18:22 39.225676 -106.868310 226 7718ft 0kts
19-Dec-17 18:23 39.225676 -106.868310 226 7718ft 0kts
19-Dec-17 18:24 39.225676 -106.868310 226 7718ft 0kts
19-Dec-17 18:25 39.225676 -106.868310 226 7718ft 0kts
19-Dec-17 18:26 39.225676 -106.868310 226 7718ft 0kts
19-Dec-17 18:27 39.225547 -106.868487 227 7719ft 0kts
19-Dec-17 18:28 39.224139 -106.868139 160 7730ft 36kts
19-Dec-17 18:29 39.215410 -106.864041 162 7800ft 20kts
19-Dec-17 18:30 39.215077 -106.863956 189 7802ft 0kts
19-Dec-17 18:31 39.215819 -106.865332 338 7796ft 32kts
19-Dec-17 18:32 39.236830 -106.875740 338 7647ft 143kts
19-Dec-17 18:33 39.290482 -106.886379 331 9667ft 209kts
19-Dec-17 18:34 39.314663 -106.956376 281 11465ft 242kts
19-Dec-17 18:35 39.329649 -107.039016 281 13721ft 241kts
19-Dec-17 18:36 39.344495 -107.119946 281 16073ft 241kts
19-Dec-17 18:37 39.360343 -107.212255 274 16175ft 274kts
19-Dec-17 18:38 39.354611 -107.309525 258 16245ft 272kts
19-Dec-17 18:39 39.338286 -107.405124 255 16244ft 274kts
19-Dec-17 18:40 39.318883 -107.499919 252 16244ft 274kts
19-Dec-17 18:41 39.295600 -107.590261 252 16969ft 246kts
19-Dec-17 18:42 39.337712 -107.641890 337 18547ft 228kts
19-Dec-17 18:43 39.394255 -107.665855 340 19925ft 218kts
19-Dec-17 18:44 39.452638 -107.689569 340 21465ft 221kts
19-Dec-17 18:45 39.513868 -107.714456 340 22191ft 252kts
19-Dec-17 18:46 39.584019 -107.745918 337 22186ft 279kts
19-Dec-17 18:47 39.656685 -107.786136 333 22185ft 289kts
19-Dec-17 18:48 39.728523 -107.834363 329 22130ft 294kts
19-Dec-17 18:49 39.805291 -107.865124 351 22131ft 297kts
19-Dec-17 18:50 39.886737 -107.880760 347 22129ft 296kts
19-Dec-17 18:51 39.967615 -107.900480 346 22130ft 296kts
19-Dec-17 18:52 40.048760 -107.920760 345 22139ft 299kts
19-Dec-17 18:53 40.101680 -107.982939 266 22163ft 300kts
19-Dec-17 18:54 40.083210 -108.090570 264 22133ft 305kts
19-Dec-17 18:55 40.080153 -108.200962 273 22128ft 304kts
19-Dec-17 18:56 40.083375 -108.311228 274 22126ft 304kts
19-Dec-17 18:57 40.087517 -108.421165 274 22128ft 304kts
19-Dec-17 18:58 40.091684 -108.531131 274 22127ft 302kts
19-Dec-17 18:59 40.095739 -108.640575 274 22126ft 302kts
19-Dec-17 19:00 40.099358 -108.748427 273 22130ft 302kts
19-Dec-17 19:01 40.102985 -108.857673 274 22131ft 302kts
19-Dec-17 19:02 40.106779 -108.967350 274 22126ft 302kts
19-Dec-17 19:03 40.110496 -109.077011 274 22132ft 302kts
19-Dec-17 19:04 40.113811 -109.184993 273 21898ft 275kts
19-Dec-17 19:05 40.085618 -109.265494 228 20571ft 259kts
19-Dec-17 19:06 40.033540 -109.326031 227 19070ft 250kts
19-Dec-17 19:07 39.982827 -109.388519 230 17182ft 251kts
19-Dec-17 19:08 39.945765 -109.460550 283 14955ft 250kts
19-Dec-17 19:09 40.005729 -109.479104 10 13197ft 255kts
19-Dec-17 19:10 40.072855 -109.459580 8 11716ft 245kts
19-Dec-17 19:11 40.124426 -109.411478 50 10266ft 232kts
19-Dec-17 19:12 40.170843 -109.376400 341 9836ft 198kts
19-Dec-17 19:13 40.222055 -109.401236 340 8804ft 210kts
19-Dec-17 19:14 40.273454 -109.430737 335 8196ft 194kts
19-Dec-17 19:15 40.321875 -109.461693 334 7461ft 192kts
19-Dec-17 19:16 40.372850 -109.486963 336 6368ft 192kts
19-Dec-17 19:17 40.410600 -109.507883 349 5661ft 119kts
19-Dec-17 19:18 40.439479 -109.510466 358 5254ft 55kts
19-Dec-17 19:19 40.445493 -109.510996 287 5260ft 11kts
19-Dec-17 19:20 40.445510 -109.511798 271 5263ft 13kts
19-Dec-17 19:21 40.446876 -109.514064 357 5270ft 0kts
19-Dec-17 19:22 40.446876 -109.514064 357 5270ft 0kts
19-Dec-17 19:23 40.446876 -109.514064 356 5270ft 0kts
19-Dec-17 19:24 40.446875 -109.514064 357 5270ft 0kts
19-Dec-17 19:25 40.446875 -109.514064 357 5270ft 0kts
19-Dec-17 19:26 40.446875 -109.514064 357 5270ft 0kts
19-Dec-17 19:27 40.446875 -109.514064 357 5270ft 0kts
19-Dec-17 19:28 40.446875 -109.514064 357 5270ft 0kts
19-Dec-17 19:29 40.446875 -109.514064 357 5270ft 0kts

Navigation Log

Ident Type
Flight plan parsing failed, navigation log unavailable